createdAt,value
2018-03-01T00:00:29.256Z,99.90
2018-03-01T00:02:57.005Z,99.90
2018-03-01T00:05:23.277Z,99.90
2018-03-01T00:07:50.346Z,99.90
2018-03-01T00:10:16.554Z,99.90
2018-03-01T00:12:42.890Z,99.90
2018-03-01T00:15:09.190Z,99.90
2018-03-01T00:17:36.254Z,99.90
2018-03-01T00:20:02.690Z,99.90
2018-03-01T00:22:36.188Z,99.90
2018-03-01T00:25:02.419Z,99.90
2018-03-01T00:27:28.635Z,99.90
2018-03-01T00:29:55.687Z,99.90
2018-03-01T00:32:22.171Z,99.90
2018-03-01T00:34:48.426Z,99.90
2018-03-01T00:37:15.487Z,99.90
2018-03-01T00:39:41.882Z,99.90
2018-03-01T00:42:08.075Z,99.90
2018-03-01T00:44:34.274Z,99.90
2018-03-01T00:47:00.516Z,99.90
2018-03-01T00:49:26.778Z,99.90
2018-03-01T00:51:53.023Z,99.90
2018-03-01T00:54:19.976Z,99.90
2018-03-01T00:56:46.932Z,99.90
2018-03-01T00:59:14.001Z,99.90
2018-03-01T01:01:40.259Z,99.90
2018-03-01T01:04:06.496Z,99.90
2018-03-01T01:06:32.791Z,99.90
2018-03-01T01:08:59.158Z,99.90
2018-03-01T01:11:25.361Z,99.90
2018-03-01T01:13:51.688Z,99.90
2018-03-01T01:16:17.913Z,99.90
2018-03-01T01:18:44.089Z,99.90
2018-03-01T01:21:11.168Z,99.90
2018-03-01T01:23:37.523Z,99.90
2018-03-01T01:26:03.745Z,99.90
2018-03-01T01:28:29.993Z,99.90
2018-03-01T01:30:56.248Z,99.90
2018-03-01T01:33:22.515Z,99.90
2018-03-01T01:35:48.860Z,99.90
2018-03-01T01:38:15.102Z,99.90
2018-03-01T01:40:42.206Z,99.90
2018-03-01T01:43:08.450Z,99.90
2018-03-01T01:45:34.725Z,99.90
2018-03-01T01:48:01.783Z,99.90
2018-03-01T01:50:28.135Z,99.90
2018-03-01T01:52:54.426Z,99.90
2018-03-01T01:55:21.502Z,99.90
2018-03-01T01:57:47.967Z,99.90
2018-03-01T02:00:14.214Z,99.90
2018-03-01T02:02:40.524Z,99.90
2018-03-01T02:05:06.747Z,99.90
2018-03-01T02:07:33.189Z,99.90
2018-03-01T02:09:59.464Z,99.90
2018-03-01T02:12:25.787Z,99.90
2018-03-01T02:14:52.378Z,99.90
2018-03-01T02:17:18.564Z,99.90
2018-03-01T02:19:44.917Z,99.90
2018-03-01T02:22:11.170Z,99.90
2018-03-01T02:24:38.215Z,99.90
2018-03-01T02:27:05.545Z,99.90
2018-03-01T02:29:31.870Z,99.90
2018-03-01T02:31:58.210Z,99.90
2018-03-01T02:34:24.538Z,99.90
2018-03-01T02:36:50.826Z,99.90
2018-03-01T02:39:17.096Z,99.90
2018-03-01T02:41:43.364Z,99.90
2018-03-01T02:44:09.750Z,99.90
2018-03-01T02:46:35.981Z,99.90
2018-03-01T02:49:02.374Z,99.90
2018-03-01T02:51:28.739Z,99.90
2018-03-01T02:53:55.768Z,99.90
2018-03-01T02:56:22.206Z,99.90
2018-03-01T02:58:48.599Z,99.90
2018-03-01T03:01:14.827Z,99.90
2018-03-01T03:03:41.092Z,99.90
2018-03-01T03:06:07.389Z,99.90
2018-03-01T03:08:33.731Z,99.90
2018-03-01T03:11:00.075Z,99.90
2018-03-01T03:13:26.493Z,99.90
2018-03-01T03:15:52.835Z,99.90
2018-03-01T03:18:19.226Z,99.90
2018-03-01T03:20:45.547Z,99.90
2018-03-01T03:23:11.828Z,99.90
2018-03-01T03:25:38.024Z,99.90
2018-03-01T03:28:04.275Z,99.90
2018-03-01T03:30:30.677Z,99.90
2018-03-01T03:32:56.913Z,99.90
2018-03-01T03:35:23.141Z,99.90
2018-03-01T03:37:49.397Z,99.90
2018-03-01T03:40:15.812Z,99.90
2018-03-01T03:42:42.221Z,99.90
2018-03-01T03:45:08.473Z,99.90
2018-03-01T03:47:34.903Z,99.90
2018-03-01T03:50:01.237Z,99.90
2018-03-01T03:52:27.546Z,99.90
2018-03-01T03:54:53.792Z,99.90
2018-03-01T03:57:20.904Z,99.90
2018-03-01T03:59:47.377Z,99.90
2018-03-01T04:02:14.390Z,99.90
2018-03-01T04:04:40.600Z,99.90
2018-03-01T04:07:07.038Z,99.90
2018-03-01T04:09:33.349Z,99.90
2018-03-01T04:11:59.735Z,99.90
2018-03-01T04:14:26.217Z,99.90
2018-03-01T04:16:52.546Z,99.90
2018-03-01T04:19:18.754Z,99.90
2018-03-01T04:21:46.056Z,99.90
2018-03-01T04:24:12.272Z,99.90
2018-03-01T04:26:38.503Z,99.90
2018-03-01T04:29:04.789Z,99.90
2018-03-01T04:31:30.988Z,99.90
2018-03-01T04:33:58.036Z,99.90
2018-03-01T04:36:25.064Z,99.90
2018-03-01T04:38:51.434Z,99.90
2018-03-01T04:41:17.608Z,99.90
2018-03-01T04:43:43.854Z,99.90
2018-03-01T04:46:10.930Z,99.90
2018-03-01T04:48:37.207Z,99.90
2018-03-01T04:51:03.446Z,99.90
2018-03-01T04:53:29.729Z,99.90
2018-03-01T04:55:55.913Z,99.90
2018-03-01T04:58:22.982Z,99.90
2018-03-01T05:00:49.252Z,99.90
2018-03-01T05:03:15.484Z,99.90
2018-03-01T05:05:41.765Z,99.90
2018-03-01T05:08:08.189Z,99.90
2018-03-01T05:10:35.138Z,99.90
2018-03-01T05:13:01.530Z,99.90
2018-03-01T05:18:01.314Z,99.90
2018-03-01T05:20:27.672Z,99.90
2018-03-01T05:22:53.901Z,99.90
2018-03-01T05:25:20.111Z,99.90
2018-03-01T05:27:46.577Z,99.90
2018-03-01T05:30:13.670Z,99.90
2018-03-01T05:32:39.994Z,99.90
2018-03-01T05:35:06.308Z,99.90
2018-03-01T05:37:32.545Z,99.90
2018-03-01T05:39:58.862Z,99.90
2018-03-01T05:42:25.148Z,99.90
2018-03-01T05:44:51.470Z,99.90
2018-03-01T05:47:17.650Z,99.90
2018-03-01T05:49:43.867Z,99.90
2018-03-01T05:52:10.843Z,99.90
2018-03-01T05:54:37.006Z,99.90
2018-03-01T05:57:04.128Z,99.90
2018-03-01T05:59:30.463Z,99.90
2018-03-01T06:01:56.843Z,99.90
2018-03-01T06:04:23.117Z,99.90
2018-03-01T06:06:49.463Z,99.90
2018-03-01T06:09:15.727Z,99.90
2018-03-01T06:11:42.053Z,99.90
2018-03-01T06:14:08.491Z,99.90
2018-03-01T06:16:34.792Z,99.90
2018-03-01T06:19:01.834Z,99.90
2018-03-01T06:21:28.853Z,99.90
2018-03-01T06:23:55.586Z,99.90
2018-03-01T06:26:21.875Z,99.90
2018-03-01T06:28:48.121Z,99.90
2018-03-01T06:31:14.302Z,99.90
2018-03-01T06:33:41.297Z,99.90
2018-03-01T06:36:07.482Z,99.90
2018-03-01T06:38:34.454Z,99.90
2018-03-01T06:41:00.698Z,99.90
2018-03-01T06:43:27.024Z,99.90
2018-03-01T06:45:53.246Z,99.90
2018-03-01T06:48:19.503Z,99.90
2018-03-01T06:50:45.831Z,99.90
2018-03-01T06:53:13.517Z,99.90
2018-03-01T06:55:40.560Z,99.90
2018-03-01T06:58:07.669Z,99.90
2018-03-01T07:00:34.002Z,99.90
2018-03-01T07:03:00.260Z,99.90
2018-03-01T07:05:27.253Z,99.90
2018-03-01T07:07:53.486Z,99.90
2018-03-01T07:10:19.914Z,99.90
2018-03-01T07:12:46.157Z,99.90
2018-03-01T07:15:12.404Z,99.90
2018-03-01T07:17:39.737Z,99.90
2018-03-01T07:20:05.909Z,99.90
2018-03-01T07:22:32.200Z,99.90
2018-03-01T07:24:59.147Z,99.90
2018-03-01T07:27:26.228Z,99.90
2018-03-01T07:29:52.530Z,99.90
2018-03-01T07:32:19.477Z,99.90
2018-03-01T07:34:46.489Z,99.90
2018-03-01T07:37:12.862Z,99.90
2018-03-01T07:39:39.866Z,99.90
2018-03-01T07:42:06.393Z,99.90
2018-03-01T07:44:32.590Z,99.90
2018-03-01T07:46:58.862Z,99.90
2018-03-01T07:49:25.164Z,99.90
2018-03-01T07:51:51.455Z,99.90
2018-03-01T07:54:18.386Z,99.60
2018-03-01T07:56:45.497Z,99.20
2018-03-01T07:59:11.726Z,99.20
2018-03-01T08:01:38.155Z,99.70
2018-03-01T08:04:04.789Z,99.40
2018-03-01T08:06:30.969Z,98.50
2018-03-01T08:08:57.292Z,98.40
2018-03-01T08:11:23.577Z,98.50
2018-03-01T08:13:49.862Z,97.80
2018-03-01T08:16:16.284Z,98.10
2018-03-01T08:18:42.602Z,97.60
2018-03-01T08:21:08.870Z,97.30
2018-03-01T08:23:35.319Z,97.60
2018-03-01T08:26:01.584Z,97.50
2018-03-01T08:28:27.876Z,96.90
2018-03-01T08:30:54.104Z,97.50
2018-03-01T08:33:20.466Z,97.70
2018-03-01T08:35:47.526Z,96.40
2018-03-01T08:38:13.710Z,96.50
2018-03-01T08:40:39.983Z,96.50
2018-03-01T08:43:06.160Z,96.80
2018-03-01T08:45:32.458Z,95.80
2018-03-01T08:47:58.731Z,95.00
2018-03-01T08:50:25.855Z,95.40
2018-03-01T08:52:52.095Z,95.40
2018-03-01T08:55:18.410Z,97.00
2018-03-01T08:57:44.574Z,97.00
2018-03-01T09:00:11.527Z,94.10
2018-03-01T09:02:37.889Z,94.00
2018-03-01T09:05:04.212Z,94.40
2018-03-01T09:07:30.522Z,94.00
2018-03-01T09:09:56.798Z,94.20
2018-03-01T09:12:23.486Z,93.60
2018-03-01T09:14:50.427Z,93.50
2018-03-01T09:17:16.661Z,93.80
2018-03-01T09:19:43.246Z,94.50
2018-03-01T09:22:10.474Z,93.40
2018-03-01T09:24:36.676Z,93.40
2018-03-01T09:27:02.915Z,93.00
2018-03-01T09:29:29.134Z,93.20
2018-03-01T09:31:55.385Z,92.90
2018-03-01T09:34:21.714Z,92.70
2018-03-01T09:36:48.104Z,92.20
2018-03-01T09:39:14.365Z,91.90
2018-03-01T09:41:40.598Z,90.50
2018-03-01T09:44:06.884Z,91.10
2018-03-01T09:46:33.128Z,91.10
2018-03-01T09:48:59.431Z,92.00
2018-03-01T09:51:25.775Z,91.60
2018-03-01T09:53:52.015Z,91.30
2018-03-01T09:56:19.128Z,90.40
2018-03-01T09:58:46.233Z,90.30
2018-03-01T10:01:12.554Z,90.30
2018-03-01T10:03:38.803Z,91.00
2018-03-01T10:06:05.264Z,91.50
2018-03-01T10:08:31.535Z,90.70
2018-03-01T10:10:57.830Z,88.20
2018-03-01T10:13:24.213Z,88.10
2018-03-01T10:15:58.806Z,87.20
2018-03-01T10:18:25.212Z,87.00
2018-03-01T10:20:51.586Z,82.30
2018-03-01T10:23:18.052Z,84.20
2018-03-01T10:25:45.321Z,83.10
2018-03-01T10:28:11.789Z,82.90
2018-03-01T10:30:38.076Z,84.60
2018-03-01T10:33:04.412Z,88.50
2018-03-01T10:35:30.790Z,86.40
2018-03-01T10:37:56.922Z,82.00
2018-03-01T10:40:23.174Z,81.00
2018-03-01T10:42:49.469Z,78.30
2018-03-01T10:45:15.818Z,78.90
2018-03-01T10:47:42.123Z,78.00
2018-03-01T10:50:08.368Z,80.30
2018-03-01T10:52:35.356Z,76.70
2018-03-01T10:55:01.733Z,77.00
2018-03-01T10:57:28.021Z,81.30
2018-03-01T10:59:54.355Z,82.90
2018-03-01T11:02:20.626Z,82.60
2018-03-01T11:04:46.829Z,84.10
2018-03-01T11:07:13.274Z,77.70
2018-03-01T11:09:39.547Z,77.20
2018-03-01T11:12:05.859Z,81.70
2018-03-01T11:14:32.800Z,80.20
2018-03-01T11:16:59.851Z,79.00
2018-03-01T11:19:26.808Z,81.10
2018-03-01T11:21:53.122Z,80.50
2018-03-01T11:24:20.068Z,76.90
2018-03-01T11:26:47.064Z,81.30
2018-03-01T11:29:13.344Z,81.30
2018-03-01T11:31:40.284Z,79.80
2018-03-01T11:34:06.511Z,79.90
2018-03-01T11:36:32.662Z,76.00
2018-03-01T11:38:59.064Z,76.50
2018-03-01T11:41:25.462Z,75.20
2018-03-01T11:43:51.880Z,77.00
2018-03-01T11:46:18.436Z,75.20
2018-03-01T11:48:45.539Z,75.20
2018-03-01T11:51:11.775Z,75.40
2018-03-01T11:53:38.155Z,74.70
2018-03-01T11:56:05.340Z,69.00
2018-03-01T11:58:31.567Z,69.10
2018-03-01T12:00:57.886Z,72.90
2018-03-01T12:03:24.252Z,72.30
2018-03-01T12:05:50.579Z,72.10
2018-03-01T12:08:16.794Z,69.50
2018-03-01T12:10:43.184Z,68.60
2018-03-01T12:13:10.150Z,72.50
2018-03-01T12:15:36.408Z,72.60
2018-03-01T12:18:02.735Z,69.70
2018-03-01T12:20:28.993Z,69.00
2018-03-01T12:22:55.283Z,70.50
2018-03-01T12:25:21.489Z,72.90
2018-03-01T12:27:48.053Z,70.30
2018-03-01T12:30:14.361Z,79.70
2018-03-01T12:32:40.746Z,64.80
2018-03-01T12:35:07.729Z,60.70
2018-03-01T12:37:34.005Z,60.20
2018-03-01T12:40:00.311Z,64.90
2018-03-01T12:42:26.587Z,64.00
2018-03-01T12:44:53.495Z,65.20
2018-03-01T12:47:20.479Z,68.10
2018-03-01T12:49:46.739Z,68.20
2018-03-01T12:52:12.970Z,68.70
2018-03-01T12:54:39.187Z,70.00
2018-03-01T12:57:05.432Z,66.30
2018-03-01T12:59:31.636Z,65.90
2018-03-01T13:01:57.943Z,64.30
2018-03-01T13:04:25.964Z,69.80
2018-03-01T13:06:52.362Z,68.40
2018-03-01T13:09:18.679Z,64.50
2018-03-01T13:11:45.065Z,63.80
2018-03-01T13:14:12.756Z,64.70
2018-03-01T13:16:39.015Z,64.70
2018-03-01T13:19:05.336Z,60.10
2018-03-01T13:21:31.517Z,64.70
2018-03-01T13:23:58.533Z,68.10
2018-03-01T13:26:25.129Z,68.30
2018-03-01T13:28:51.389Z,69.10
2018-03-01T13:31:18.519Z,68.80
2018-03-01T13:33:50.888Z,71.40
2018-03-01T13:36:17.181Z,71.30
2018-03-01T13:38:44.183Z,60.20
2018-03-01T13:41:10.459Z,60.00
2018-03-01T13:43:36.809Z,65.30
2018-03-01T13:46:03.938Z,58.50
2018-03-01T13:48:30.272Z,57.90
2018-03-01T13:50:56.500Z,59.20
2018-03-01T13:53:22.751Z,62.90
2018-03-01T13:55:49.108Z,64.10
2018-03-01T13:58:15.330Z,61.30
2018-03-01T14:00:41.654Z,63.80
2018-03-01T14:03:08.086Z,58.80
2018-03-01T14:05:34.427Z,57.40
2018-03-01T14:08:00.658Z,62.60
2018-03-01T14:10:27.700Z,66.00
2018-03-01T14:13:00.186Z,66.00
2018-03-01T14:15:27.447Z,63.00
2018-03-01T14:20:58.578Z,69.40
2018-03-01T14:23:31.862Z,67.60
2018-03-01T14:26:02.147Z,65.30
2018-03-01T14:28:30.248Z,65.50
2018-03-01T14:30:56.692Z,64.20
2018-03-01T14:33:22.882Z,60.90
2018-03-01T14:36:04.088Z,62.10
2018-03-01T14:38:30.291Z,60.70
2018-03-01T14:40:56.658Z,69.40
2018-03-01T14:43:23.083Z,60.60
2018-03-01T14:45:49.608Z,59.10
2018-03-01T14:48:15.941Z,62.30
2018-03-01T14:50:42.142Z,62.40
2018-03-01T14:53:08.436Z,63.10
2018-03-01T14:55:35.490Z,65.10
2018-03-01T14:58:01.725Z,65.00
2018-03-01T15:00:27.977Z,65.30
2018-03-01T15:02:54.326Z,64.20
2018-03-01T15:05:20.673Z,64.40
2018-03-01T15:07:46.830Z,65.80
2018-03-01T15:10:13.324Z,62.40
2018-03-01T15:12:39.705Z,60.80
2018-03-01T15:15:06.013Z,63.70
2018-03-01T15:17:32.349Z,62.20
2018-03-01T15:19:58.774Z,65.00
2018-03-01T15:22:25.850Z,62.90
2018-03-01T15:24:52.263Z,62.80
2018-03-01T15:27:18.480Z,65.30
2018-03-01T15:29:45.507Z,67.10
2018-03-01T15:32:12.463Z,62.00
2018-03-01T15:34:39.505Z,66.60
2018-03-01T15:37:06.613Z,66.10
2018-03-01T15:39:32.977Z,66.10
2018-03-01T15:42:00.042Z,62.90
2018-03-01T15:44:26.339Z,62.60
2018-03-01T15:46:52.680Z,64.00
2018-03-01T15:49:19.760Z,64.20
2018-03-01T15:51:46.090Z,64.20
2018-03-01T15:54:12.283Z,66.80
2018-03-01T15:56:39.302Z,62.70
2018-03-01T15:59:05.624Z,62.60
2018-03-01T16:01:31.949Z,64.00
2018-03-01T16:03:58.155Z,62.20
2018-03-01T16:06:24.452Z,65.40
2018-03-01T16:08:51.373Z,64.70
2018-03-01T16:11:18.542Z,64.80
2018-03-01T16:13:44.790Z,64.60
2018-03-01T16:16:11.170Z,63.90
2018-03-01T16:18:37.506Z,67.40
2018-03-01T16:21:03.753Z,66.70
2018-03-01T16:23:30.774Z,69.50
2018-03-01T16:25:58.575Z,70.90
2018-03-01T16:28:25.205Z,70.80
2018-03-01T16:30:52.280Z,67.00
2018-03-01T16:33:18.696Z,67.10
2018-03-01T16:35:44.932Z,68.70
2018-03-01T16:38:11.286Z,71.10
2018-03-01T16:40:37.628Z,69.00
2018-03-01T16:43:05.595Z,68.60
2018-03-01T16:45:32.749Z,71.60
2018-03-01T16:47:59.880Z,68.60
2018-03-01T16:50:26.148Z,68.60
2018-03-01T16:52:53.167Z,73.50
2018-03-01T16:55:19.479Z,73.50
2018-03-01T16:57:45.919Z,75.20
2018-03-01T17:00:12.199Z,75.50
2018-03-01T17:02:38.401Z,76.80
2018-03-01T17:05:05.384Z,78.40
2018-03-01T17:07:31.700Z,78.40
2018-03-01T17:09:58.124Z,77.90
2018-03-01T17:12:25.215Z,79.60
2018-03-01T17:14:51.454Z,79.70
2018-03-01T17:17:17.671Z,81.40
2018-03-01T17:19:43.823Z,83.00
2018-03-01T17:22:10.803Z,83.20
2018-03-01T17:24:37.171Z,83.20
2018-03-01T17:27:03.444Z,82.70
2018-03-01T17:29:29.731Z,83.40
2018-03-01T17:31:56.057Z,84.70
2018-03-01T17:34:22.273Z,84.10
2018-03-01T17:36:48.876Z,84.20
2018-03-01T17:39:15.311Z,84.90
2018-03-01T17:41:41.474Z,85.70
2018-03-01T17:44:07.816Z,85.70
2018-03-01T17:46:34.012Z,86.10
2018-03-01T17:49:00.429Z,88.20
2018-03-01T17:51:26.787Z,87.70
2018-03-01T17:53:53.088Z,88.40
2018-03-01T17:56:19.353Z,89.00
2018-03-01T17:58:45.718Z,88.30
2018-03-01T18:01:11.964Z,88.10
2018-03-01T18:03:38.264Z,89.00
2018-03-01T18:06:06.469Z,89.80
2018-03-01T18:08:32.935Z,89.90
2018-03-01T18:10:59.314Z,90.00
2018-03-01T18:13:25.568Z,90.10
2018-03-01T18:15:52.394Z,90.30
2018-03-01T18:18:18.615Z,90.40
2018-03-01T18:20:45.039Z,90.90
2018-03-01T18:23:11.443Z,91.10
2018-03-01T18:25:38.708Z,90.90
2018-03-01T18:28:05.754Z,91.00
2018-03-01T18:30:32.865Z,91.50
2018-03-01T18:32:59.060Z,91.50
2018-03-01T18:35:25.874Z,91.50
2018-03-01T18:37:52.138Z,91.60
2018-03-01T18:40:18.370Z,91.90
2018-03-01T18:42:44.866Z,92.10
2018-03-01T18:45:11.091Z,92.10
2018-03-01T18:47:37.476Z,92.10
2018-03-01T18:50:03.857Z,92.40
2018-03-01T18:52:30.150Z,92.40
2018-03-01T18:54:57.131Z,92.50
2018-03-01T18:57:23.561Z,92.50
2018-03-01T18:59:49.804Z,92.50
2018-03-01T19:02:16.159Z,93.00
2018-03-01T19:04:42.323Z,92.90
2018-03-01T19:07:09.385Z,93.00
2018-03-01T19:09:35.761Z,93.00
2018-03-01T19:12:02.960Z,92.90
2018-03-01T19:14:29.240Z,93.20
2018-03-01T19:16:55.519Z,93.10
2018-03-01T19:19:21.798Z,93.20
2018-03-01T19:21:48.052Z,93.10
2018-03-01T19:24:15.165Z,93.30
2018-03-01T19:26:41.434Z,93.30
2018-03-01T19:29:08.395Z,93.60
2018-03-01T19:31:35.454Z,93.60
2018-03-01T19:34:01.672Z,93.60
2018-03-01T19:36:27.946Z,93.90
2018-03-01T19:38:54.370Z,93.70
2018-03-01T19:41:20.611Z,93.70
2018-03-01T19:43:46.947Z,93.90
2018-03-01T19:46:14.855Z,94.30
2018-03-01T19:48:41.077Z,94.30
2018-03-01T19:51:07.380Z,94.30
2018-03-01T19:53:34.445Z,94.70
2018-03-01T19:56:01.916Z,94.60
2018-03-01T19:58:28.275Z,94.80
2018-03-01T20:00:54.614Z,95.30
2018-03-01T20:03:20.904Z,95.60
2018-03-01T20:05:47.192Z,95.50
2018-03-01T20:08:14.228Z,96.40
2018-03-01T20:10:41.323Z,96.60
2018-03-01T20:13:07.576Z,96.60
2018-03-01T20:15:33.850Z,97.00
2018-03-01T20:18:00.338Z,97.30
2018-03-01T20:20:26.787Z,97.20
2018-03-01T20:22:54.649Z,97.60
2018-03-01T20:25:21.013Z,97.60
2018-03-01T20:27:47.969Z,97.90
2018-03-01T20:30:14.429Z,97.90
2018-03-01T20:32:40.847Z,98.00
2018-03-01T20:35:07.401Z,97.80
2018-03-01T20:37:33.931Z,98.10
2018-03-01T20:40:01.189Z,98.60
2018-03-01T20:42:27.393Z,98.60
2018-03-01T20:44:53.606Z,98.60
2018-03-01T20:47:21.585Z,99.10
2018-03-01T20:49:47.912Z,99.10
2018-03-01T20:52:14.174Z,99.20
2018-03-01T20:54:40.459Z,99.70
2018-03-01T20:57:06.676Z,99.60
2018-03-01T20:59:33.928Z,99.80
2018-03-01T21:02:00.300Z,99.70
2018-03-01T21:04:26.473Z,99.70
2018-03-01T21:06:52.735Z,99.90
2018-03-01T21:09:19.062Z,99.90
2018-03-01T21:11:45.410Z,99.90
2018-03-01T21:14:11.844Z,99.90
2018-03-01T21:16:38.063Z,99.90
2018-03-01T21:19:04.298Z,99.90
2018-03-01T21:21:30.585Z,99.90
2018-03-01T21:23:56.864Z,99.90
2018-03-01T21:26:23.779Z,99.90
2018-03-01T21:28:50.215Z,99.90
2018-03-01T21:31:16.543Z,99.90
2018-03-01T21:33:42.866Z,99.90
2018-03-01T21:36:09.110Z,99.90
2018-03-01T21:38:35.631Z,99.90
2018-03-01T21:41:02.000Z,99.90
2018-03-01T21:43:28.946Z,99.90
2018-03-01T21:45:56.069Z,99.90
2018-03-01T21:48:22.386Z,99.90
2018-03-01T21:50:48.808Z,99.90
2018-03-01T21:53:15.059Z,99.90
2018-03-01T21:55:41.309Z,99.90
2018-03-01T21:58:23.247Z,99.90
2018-03-01T22:00:49.674Z,99.90
2018-03-01T22:03:15.914Z,99.90
2018-03-01T22:05:42.253Z,99.90
2018-03-01T22:08:08.628Z,99.90
2018-03-01T22:10:35.834Z,99.90
2018-03-01T22:13:02.067Z,99.90
2018-03-01T22:15:28.413Z,99.90
2018-03-01T22:17:54.714Z,99.90
2018-03-01T22:20:21.146Z,99.90
2018-03-01T22:22:47.373Z,99.90
2018-03-01T22:25:13.611Z,99.90
2018-03-01T22:27:39.988Z,99.90
2018-03-01T22:30:06.259Z,99.90
2018-03-01T22:32:32.562Z,99.90
2018-03-01T22:34:58.815Z,99.90
2018-03-01T22:37:25.874Z,99.90
2018-03-01T22:39:52.170Z,99.90
2018-03-01T22:42:18.572Z,99.90
2018-03-01T22:44:45.309Z,99.90
2018-03-01T22:47:11.856Z,99.90
2018-03-01T22:49:38.335Z,99.90
2018-03-01T22:52:06.222Z,99.90
2018-03-01T22:54:33.217Z,99.90
2018-03-01T22:56:59.561Z,99.90
2018-03-01T22:59:25.954Z,99.90
2018-03-01T23:01:52.333Z,99.90
2018-03-01T23:04:18.663Z,99.90
2018-03-01T23:06:45.905Z,99.90
2018-03-01T23:09:12.192Z,99.90
2018-03-01T23:11:38.437Z,99.90
2018-03-01T23:14:04.830Z,99.90
2018-03-01T23:16:31.893Z,99.90
2018-03-01T23:18:58.077Z,99.90
2018-03-01T23:21:24.313Z,99.90
2018-03-01T23:23:51.307Z,99.90
2018-03-01T23:26:17.814Z,99.90
2018-03-01T23:28:44.189Z,99.90
2018-03-01T23:31:10.495Z,99.90
2018-03-01T23:33:36.701Z,99.90
2018-03-01T23:36:02.995Z,99.90
2018-03-01T23:38:30.013Z,99.90
2018-03-01T23:40:56.240Z,99.90
2018-03-01T23:43:22.566Z,99.90
2018-03-01T23:45:48.818Z,99.90
2018-03-01T23:48:15.020Z,99.90
2018-03-01T23:50:41.223Z,99.90
2018-03-01T23:53:07.477Z,99.90
2018-03-01T23:55:33.666Z,99.90
2018-03-01T23:57:59.851Z,99.90
